sensor_id;sensor_type;location;lat;lon;timestamp;temperature;humidity
6627;DHT22;3349;49.830;8.748;2022-08-27T00:00:18;21.70;1.00
6627;DHT22;3349;49.830;8.748;2022-08-27T00:02:45;21.70;1.00
6627;DHT22;3349;49.830;8.748;2022-08-27T00:05:17;21.60;1.00
6627;DHT22;3349;49.830;8.748;2022-08-27T00:07:45;21.60;1.00
6627;DHT22;3349;49.830;8.748;2022-08-27T00:10:16;21.60;1.00
6627;DHT22;3349;49.830;8.748;2022-08-27T00:12:44;21.60;1.00
6627;DHT22;3349;49.830;8.748;2022-08-27T00:15:11;21.60;1.00
6627;DHT22;3349;49.830;8.748;2022-08-27T00:17:40;21.60;1.00
6627;DHT22;3349;49.830;8.748;2022-08-27T00:20:08;21.60;1.00
6627;DHT22;3349;49.830;8.748;2022-08-27T00:22:36;21.60;1.00
6627;DHT22;3349;49.830;8.748;2022-08-27T00:25:04;21.60;1.00
6627;DHT22;3349;49.830;8.748;2022-08-27T00:27:31;21.60;1.00
6627;DHT22;3349;49.830;8.748;2022-08-27T00:29:57;21.60;1.00
6627;DHT22;3349;49.830;8.748;2022-08-27T00:32:24;21.60;1.00
6627;DHT22;3349;49.830;8.748;2022-08-27T00:34:51;21.60;1.00
6627;DHT22;3349;49.830;8.748;2022-08-27T00:37:18;21.60;1.00
6627;DHT22;3349;49.830;8.748;2022-08-27T00:39:46;21.60;1.00
6627;DHT22;3349;49.830;8.748;2022-08-27T00:42:13;21.60;1.00
6627;DHT22;3349;49.830;8.748;2022-08-27T00:44:40;21.50;1.00
6627;DHT22;3349;49.830;8.748;2022-08-27T00:47:10;21.50;1.00
6627;DHT22;3349;49.830;8.748;2022-08-27T00:49:40;21.50;1.00
6627;DHT22;3349;49.830;8.748;2022-08-27T00:52:14;21.50;1.00
6627;DHT22;3349;49.830;8.748;2022-08-27T00:54:42;21.50;1.00
6627;DHT22;3349;49.830;8.748;2022-08-27T00:57:10;21.40;1.00
6627;DHT22;3349;49.830;8.748;2022-08-27T00:59:40;21.40;1.00
6627;DHT22;3349;49.830;8.748;2022-08-27T01:02:08;21.50;1.00
6627;DHT22;3349;49.830;8.748;2022-08-27T01:04:46;21.50;1.00
6627;DHT22;3349;49.830;8.748;2022-08-27T01:07:14;21.40;1.00
6627;DHT22;3349;49.830;8.748;2022-08-27T01:09:42;21.40;1.00
6627;DHT22;3349;49.830;8.748;2022-08-27T01:12:10;21.40;1.00
6627;DHT22;3349;49.830;8.748;2022-08-27T01:14:38;21.40;1.00
6627;DHT22;3349;49.830;8.748;2022-08-27T01:17:06;21.30;1.00
6627;DHT22;3349;49.830;8.748;2022-08-27T01:19:36;21.30;1.00
6627;DHT22;3349;49.830;8.748;2022-08-27T01:22:08;21.30;1.00
6627;DHT22;3349;49.830;8.748;2022-08-27T01:24:40;21.40;1.00
6627;DHT22;3349;49.830;8.748;2022-08-27T01:27:10;21.30;1.00
6627;DHT22;3349;49.830;8.748;2022-08-27T01:29:38;21.40;1.00
6627;DHT22;3349;49.830;8.748;2022-08-27T01:32:07;21.30;1.00
6627;DHT22;3349;49.830;8.748;2022-08-27T01:34:35;21.30;1.00
6627;DHT22;3349;49.830;8.748;2022-08-27T01:37:02;21.30;1.00
6627;DHT22;3349;49.830;8.748;2022-08-27T01:39:30;21.30;1.00
6627;DHT22;3349;49.830;8.748;2022-08-27T01:42:03;21.30;1.00
6627;DHT22;3349;49.830;8.748;2022-08-27T01:44:44;21.30;1.00
6627;DHT22;3349;49.830;8.748;2022-08-27T01:47:12;21.30;1.00
6627;DHT22;3349;49.830;8.748;2022-08-27T01:49:38;21.30;1.00
6627;DHT22;3349;49.830;8.748;2022-08-27T01:52:05;21.20;1.00
6627;DHT22;3349;49.830;8.748;2022-08-27T01:54:32;21.20;1.00
6627;DHT22;3349;49.830;8.748;2022-08-27T01:56:59;21.20;1.00
6627;DHT22;3349;49.830;8.748;2022-08-27T01:59:27;21.20;1.00
6627;DHT22;3349;49.830;8.748;2022-08-27T02:01:54;21.20;1.00
6627;DHT22;3349;49.830;8.748;2022-08-27T02:04:22;21.20;1.00
6627;DHT22;3349;49.830;8.748;2022-08-27T02:06:49;21.20;1.00
6627;DHT22;3349;49.830;8.748;2022-08-27T02:09:15;21.20;1.00
6627;DHT22;3349;49.830;8.748;2022-08-27T02:11:42;21.20;1.00
6627;DHT22;3349;49.830;8.748;2022-08-27T02:14:09;21.20;1.00
6627;DHT22;3349;49.830;8.748;2022-08-27T02:16:37;21.10;1.00
6627;DHT22;3349;49.830;8.748;2022-08-27T02:19:04;21.20;1.00
6627;DHT22;3349;49.830;8.748;2022-08-27T02:21:31;21.10;1.00
6627;DHT22;3349;49.830;8.748;2022-08-27T02:23:57;21.10;1.00
6627;DHT22;3349;49.830;8.748;2022-08-27T02:26:24;21.10;1.00
6627;DHT22;3349;49.830;8.748;2022-08-27T02:28:52;21.10;1.00
6627;DHT22;3349;49.830;8.748;2022-08-27T02:31:18;21.10;1.00
6627;DHT22;3349;49.830;8.748;2022-08-27T02:33:47;21.10;1.00
6627;DHT22;3349;49.830;8.748;2022-08-27T02:36:15;21.10;1.00
6627;DHT22;3349;49.830;8.748;2022-08-27T02:38:42;21.00;1.00
6627;DHT22;3349;49.830;8.748;2022-08-27T02:41:09;21.00;1.00
6627;DHT22;3349;49.830;8.748;2022-08-27T02:43:36;21.10;1.00
6627;DHT22;3349;49.830;8.748;2022-08-27T02:46:03;21.00;1.00
6627;DHT22;3349;49.830;8.748;2022-08-27T02:48:30;21.00;1.00
6627;DHT22;3349;49.830;8.748;2022-08-27T02:50:59;21.00;1.00
6627;DHT22;3349;49.830;8.748;2022-08-27T02:53:26;21.00;1.00
6627;DHT22;3349;49.830;8.748;2022-08-27T02:55:52;21.00;1.00
6627;DHT22;3349;49.830;8.748;2022-08-27T02:58:19;21.00;1.00
6627;DHT22;3349;49.830;8.748;2022-08-27T03:00:46;21.00;1.00
6627;DHT22;3349;49.830;8.748;2022-08-27T03:03:13;21.00;1.00
6627;DHT22;3349;49.830;8.748;2022-08-27T03:05:40;21.00;1.00
6627;DHT22;3349;49.830;8.748;2022-08-27T03:08:08;21.00;1.00
6627;DHT22;3349;49.830;8.748;2022-08-27T03:10:34;21.00;1.00
6627;DHT22;3349;49.830;8.748;2022-08-27T03:13:01;21.00;1.00
6627;DHT22;3349;49.830;8.748;2022-08-27T03:15:28;21.00;1.00
6627;DHT22;3349;49.830;8.748;2022-08-27T03:17:55;21.00;1.00
6627;DHT22;3349;49.830;8.748;2022-08-27T03:20:41;21.00;1.00
6627;DHT22;3349;49.830;8.748;2022-08-27T03:23:11;20.90;1.00
6627;DHT22;3349;49.830;8.748;2022-08-27T03:25:42;20.90;1.00
6627;DHT22;3349;49.830;8.748;2022-08-27T03:28:09;20.90;1.00
6627;DHT22;3349;49.830;8.748;2022-08-27T03:30:39;20.90;1.00
6627;DHT22;3349;49.830;8.748;2022-08-27T03:33:07;20.90;1.00
6627;DHT22;3349;49.830;8.748;2022-08-27T03:35:34;20.90;1.00
6627;DHT22;3349;49.830;8.748;2022-08-27T03:38:02;20.90;1.00
6627;DHT22;3349;49.830;8.748;2022-08-27T03:40:30;20.80;1.00
6627;DHT22;3349;49.830;8.748;2022-08-27T03:42:57;20.80;1.00
6627;DHT22;3349;49.830;8.748;2022-08-27T03:45:24;20.90;1.00
6627;DHT22;3349;49.830;8.748;2022-08-27T03:47:51;20.90;1.00
6627;DHT22;3349;49.830;8.748;2022-08-27T03:50:18;20.80;1.00
6627;DHT22;3349;49.830;8.748;2022-08-27T03:52:45;20.90;1.00
6627;DHT22;3349;49.830;8.748;2022-08-27T03:55:12;20.80;1.00
6627;DHT22;3349;49.830;8.748;2022-08-27T03:57:40;20.80;1.00
6627;DHT22;3349;49.830;8.748;2022-08-27T04:00:09;20.80;1.00
6627;DHT22;3349;49.830;8.748;2022-08-27T04:02:37;20.80;1.00
6627;DHT22;3349;49.830;8.748;2022-08-27T04:05:06;20.80;1.00
6627;DHT22;3349;49.830;8.748;2022-08-27T04:07:34;20.80;1.00
6627;DHT22;3349;49.830;8.748;2022-08-27T04:10:01;20.80;1.00
6627;DHT22;3349;49.830;8.748;2022-08-27T04:12:27;20.80;1.00
6627;DHT22;3349;49.830;8.748;2022-08-27T04:14:55;20.70;1.00
6627;DHT22;3349;49.830;8.748;2022-08-27T04:17:22;20.70;1.00
6627;DHT22;3349;49.830;8.748;2022-08-27T04:19:50;20.70;1.00
6627;DHT22;3349;49.830;8.748;2022-08-27T04:22:17;20.70;1.00
6627;DHT22;3349;49.830;8.748;2022-08-27T04:24:45;20.70;1.00
6627;DHT22;3349;49.830;8.748;2022-08-27T04:27:12;20.70;1.00
6627;DHT22;3349;49.830;8.748;2022-08-27T04:29:40;20.70;1.00
6627;DHT22;3349;49.830;8.748;2022-08-27T04:32:09;20.70;1.00
6627;DHT22;3349;49.830;8.748;2022-08-27T04:34:36;20.70;1.00
6627;DHT22;3349;49.830;8.748;2022-08-27T04:37:03;20.70;1.00
6627;DHT22;3349;49.830;8.748;2022-08-27T04:39:31;20.60;1.00
6627;DHT22;3349;49.830;8.748;2022-08-27T04:41:59;20.60;1.00
6627;DHT22;3349;49.830;8.748;2022-08-27T04:44:30;20.70;1.00
6627;DHT22;3349;49.830;8.748;2022-08-27T04:46:59;20.60;1.00
6627;DHT22;3349;49.830;8.748;2022-08-27T04:49:28;20.60;1.00
6627;DHT22;3349;49.830;8.748;2022-08-27T04:51:55;20.70;1.00
6627;DHT22;3349;49.830;8.748;2022-08-27T04:54:22;20.70;1.00
6627;DHT22;3349;49.830;8.748;2022-08-27T04:56:49;20.70;1.00
6627;DHT22;3349;49.830;8.748;2022-08-27T04:59:17;20.70;1.00
6627;DHT22;3349;49.830;8.748;2022-08-27T05:01:44;20.70;1.00
6627;DHT22;3349;49.830;8.748;2022-08-27T05:04:13;20.70;1.00
6627;DHT22;3349;49.830;8.748;2022-08-27T05:06:41;20.70;1.00
6627;DHT22;3349;49.830;8.748;2022-08-27T05:09:10;20.80;1.00
6627;DHT22;3349;49.830;8.748;2022-08-27T05:11:37;20.70;1.00
6627;DHT22;3349;49.830;8.748;2022-08-27T05:14:06;20.70;1.00
6627;DHT22;3349;49.830;8.748;2022-08-27T05:16:33;20.70;1.00
6627;DHT22;3349;49.830;8.748;2022-08-27T05:19:01;20.70;1.00
6627;DHT22;3349;49.830;8.748;2022-08-27T05:21:31;20.70;1.00
6627;DHT22;3349;49.830;8.748;2022-08-27T05:24:01;20.70;1.00
6627;DHT22;3349;49.830;8.748;2022-08-27T05:26:29;20.70;1.00
6627;DHT22;3349;49.830;8.748;2022-08-27T05:28:57;20.80;1.00
6627;DHT22;3349;49.830;8.748;2022-08-27T05:31:24;20.70;1.00
6627;DHT22;3349;49.830;8.748;2022-08-27T05:33:52;20.70;1.00
6627;DHT22;3349;49.830;8.748;2022-08-27T05:36:22;20.70;1.00
6627;DHT22;3349;49.830;8.748;2022-08-27T05:38:51;20.70;1.00
6627;DHT22;3349;49.830;8.748;2022-08-27T05:41:21;20.70;1.00
6627;DHT22;3349;49.830;8.748;2022-08-27T05:43:50;20.70;1.00
6627;DHT22;3349;49.830;8.748;2022-08-27T05:46:19;20.70;1.00
6627;DHT22;3349;49.830;8.748;2022-08-27T05:48:47;20.80;1.00
6627;DHT22;3349;49.830;8.748;2022-08-27T05:51:16;20.70;1.00
6627;DHT22;3349;49.830;8.748;2022-08-27T05:53:43;20.70;1.00
6627;DHT22;3349;49.830;8.748;2022-08-27T05:56:11;20.70;1.00
6627;DHT22;3349;49.830;8.748;2022-08-27T05:58:40;20.70;1.00
6627;DHT22;3349;49.830;8.748;2022-08-27T06:01:24;20.70;1.00
6627;DHT22;3349;49.830;8.748;2022-08-27T06:03:51;20.80;1.00
6627;DHT22;3349;49.830;8.748;2022-08-27T06:06:20;20.70;1.00
6627;DHT22;3349;49.830;8.748;2022-08-27T06:08:47;20.80;1.00
6627;DHT22;3349;49.830;8.748;2022-08-27T06:11:14;20.80;1.00
6627;DHT22;3349;49.830;8.748;2022-08-27T06:13:44;20.80;1.00
6627;DHT22;3349;49.830;8.748;2022-08-27T06:16:13;20.80;1.00
6627;DHT22;3349;49.830;8.748;2022-08-27T06:18:42;20.80;1.00
6627;DHT22;3349;49.830;8.748;2022-08-27T06:21:09;20.90;1.00
6627;DHT22;3349;49.830;8.748;2022-08-27T06:23:37;20.90;1.00
6627;DHT22;3349;49.830;8.748;2022-08-27T06:26:05;20.90;1.00
6627;DHT22;3349;49.830;8.748;2022-08-27T06:28:32;20.90;1.00
6627;DHT22;3349;49.830;8.748;2022-08-27T06:31:06;21.00;1.00
6627;DHT22;3349;49.830;8.748;2022-08-27T06:33:33;21.00;1.00
6627;DHT22;3349;49.830;8.748;2022-08-27T06:36:01;21.00;1.00
6627;DHT22;3349;49.830;8.748;2022-08-27T06:38:28;21.00;1.00
6627;DHT22;3349;49.830;8.748;2022-08-27T06:40:55;21.00;1.00
6627;DHT22;3349;49.830;8.748;2022-08-27T06:43:23;21.10;1.00
6627;DHT22;3349;49.830;8.748;2022-08-27T06:45:50;21.10;1.00
6627;DHT22;3349;49.830;8.748;2022-08-27T06:48:19;21.10;1.00
6627;DHT22;3349;49.830;8.748;2022-08-27T06:50:46;21.10;1.00
6627;DHT22;3349;49.830;8.748;2022-08-27T06:53:13;21.00;1.00
6627;DHT22;3349;49.830;8.748;2022-08-27T06:55:40;21.10;1.00
6627;DHT22;3349;49.830;8.748;2022-08-27T06:58:08;21.10;1.00
6627;DHT22;3349;49.830;8.748;2022-08-27T07:00:34;21.10;1.00
6627;DHT22;3349;49.830;8.748;2022-08-27T07:03:02;21.20;1.00
6627;DHT22;3349;49.830;8.748;2022-08-27T07:05:32;21.20;1.00
6627;DHT22;3349;49.830;8.748;2022-08-27T07:08:00;21.20;1.00
6627;DHT22;3349;49.830;8.748;2022-08-27T07:10:28;21.20;1.00
6627;DHT22;3349;49.830;8.748;2022-08-27T07:12:55;21.20;1.00
6627;DHT22;3349;49.830;8.748;2022-08-27T07:15:22;21.10;1.00
6627;DHT22;3349;49.830;8.748;2022-08-27T07:17:49;21.10;1.00
6627;DHT22;3349;49.830;8.748;2022-08-27T07:20:17;21.10;1.00
6627;DHT22;3349;49.830;8.748;2022-08-27T07:22:47;21.00;1.00
6627;DHT22;3349;49.830;8.748;2022-08-27T07:25:15;21.00;1.00
6627;DHT22;3349;49.830;8.748;2022-08-27T07:27:44;21.10;1.00
6627;DHT22;3349;49.830;8.748;2022-08-27T07:30:12;21.00;1.00
6627;DHT22;3349;49.830;8.748;2022-08-27T07:32:41;21.10;1.00
6627;DHT22;3349;49.830;8.748;2022-08-27T07:35:08;21.10;1.00
6627;DHT22;3349;49.830;8.748;2022-08-27T07:37:36;21.10;1.00
6627;DHT22;3349;49.830;8.748;2022-08-27T07:40:06;21.10;1.00
6627;DHT22;3349;49.830;8.748;2022-08-27T07:42:34;21.10;1.00
6627;DHT22;3349;49.830;8.748;2022-08-27T07:45:19;21.20;1.00
6627;DHT22;3349;49.830;8.748;2022-08-27T07:47:46;21.30;1.00
6627;DHT22;3349;49.830;8.748;2022-08-27T07:50:14;21.20;1.00
6627;DHT22;3349;49.830;8.748;2022-08-27T07:52:41;21.30;1.00
6627;DHT22;3349;49.830;8.748;2022-08-27T07:55:10;21.40;1.00
6627;DHT22;3349;49.830;8.748;2022-08-27T07:57:37;21.50;1.00
6627;DHT22;3349;49.830;8.748;2022-08-27T08:00:07;21.60;1.00
6627;DHT22;3349;49.830;8.748;2022-08-27T08:02:34;21.70;1.00
6627;DHT22;3349;49.830;8.748;2022-08-27T08:05:01;21.80;1.00
6627;DHT22;3349;49.830;8.748;2022-08-27T08:07:28;22.10;1.00
6627;DHT22;3349;49.830;8.748;2022-08-27T08:09:56;22.40;1.00
6627;DHT22;3349;49.830;8.748;2022-08-27T08:12:24;23.00;1.00
6627;DHT22;3349;49.830;8.748;2022-08-27T08:14:51;23.40;1.00
6627;DHT22;3349;49.830;8.748;2022-08-27T08:17:22;23.90;1.00
6627;DHT22;3349;49.830;8.748;2022-08-27T08:19:49;24.10;1.00
6627;DHT22;3349;49.830;8.748;2022-08-27T08:22:15;24.00;1.00
6627;DHT22;3349;49.830;8.748;2022-08-27T08:24:42;24.40;1.00
6627;DHT22;3349;49.830;8.748;2022-08-27T08:27:09;24.80;1.00
6627;DHT22;3349;49.830;8.748;2022-08-27T08:29:37;25.00;1.00
6627;DHT22;3349;49.830;8.748;2022-08-27T08:32:05;25.00;1.00
6627;DHT22;3349;49.830;8.748;2022-08-27T08:34:33;24.90;1.00
6627;DHT22;3349;49.830;8.748;2022-08-27T08:37:01;24.90;1.00
6627;DHT22;3349;49.830;8.748;2022-08-27T08:39:27;24.90;1.00
6627;DHT22;3349;49.830;8.748;2022-08-27T08:41:56;24.90;1.00
6627;DHT22;3349;49.830;8.748;2022-08-27T08:44:27;24.70;1.00
6627;DHT22;3349;49.830;8.748;2022-08-27T08:47:02;25.10;1.00
6627;DHT22;3349;49.830;8.748;2022-08-27T08:49:36;25.30;1.00
6627;DHT22;3349;49.830;8.748;2022-08-27T08:52:12;25.90;1.00
6627;DHT22;3349;49.830;8.748;2022-08-27T08:54:41;26.10;1.00
6627;DHT22;3349;49.830;8.748;2022-08-27T08:57:15;26.10;1.00
6627;DHT22;3349;49.830;8.748;2022-08-27T08:59:49;26.10;1.00
6627;DHT22;3349;49.830;8.748;2022-08-27T09:02:21;26.00;1.00
6627;DHT22;3349;49.830;8.748;2022-08-27T09:04:48;25.60;1.00
6627;DHT22;3349;49.830;8.748;2022-08-27T09:07:20;25.20;1.00
6627;DHT22;3349;49.830;8.748;2022-08-27T09:09:53;25.10;1.00
6627;DHT22;3349;49.830;8.748;2022-08-27T09:12:25;25.10;1.00
6627;DHT22;3349;49.830;8.748;2022-08-27T09:14:56;24.90;1.00
6627;DHT22;3349;49.830;8.748;2022-08-27T09:17:25;25.00;1.00
6627;DHT22;3349;49.830;8.748;2022-08-27T09:19:52;25.00;1.00
6627;DHT22;3349;49.830;8.748;2022-08-27T09:22:22;24.70;1.00
6627;DHT22;3349;49.830;8.748;2022-08-27T09:25:02;24.70;1.00
6627;DHT22;3349;49.830;8.748;2022-08-27T09:27:31;24.30;1.00
6627;DHT22;3349;49.830;8.748;2022-08-27T09:29:58;24.10;1.00
6627;DHT22;3349;49.830;8.748;2022-08-27T09:32:27;24.20;1.00
6627;DHT22;3349;49.830;8.748;2022-08-27T09:34:57;24.20;1.00
6627;DHT22;3349;49.830;8.748;2022-08-27T09:37:26;24.00;1.00
6627;DHT22;3349;49.830;8.748;2022-08-27T09:39:57;24.20;1.00
6627;DHT22;3349;49.830;8.748;2022-08-27T09:42:31;24.30;1.00
6627;DHT22;3349;49.830;8.748;2022-08-27T09:44:59;24.40;1.00
6627;DHT22;3349;49.830;8.748;2022-08-27T09:47:27;24.50;1.00
6627;DHT22;3349;49.830;8.748;2022-08-27T09:50:06;24.60;1.00
6627;DHT22;3349;49.830;8.748;2022-08-27T09:52:35;24.90;1.00
6627;DHT22;3349;49.830;8.748;2022-08-27T09:55:04;25.10;1.00
6627;DHT22;3349;49.830;8.748;2022-08-27T09:57:34;25.30;1.00
6627;DHT22;3349;49.830;8.748;2022-08-27T10:00:07;25.80;1.00
6627;DHT22;3349;49.830;8.748;2022-08-27T10:02:35;26.10;1.00
6627;DHT22;3349;49.830;8.748;2022-08-27T10:05:13;26.10;1.00
6627;DHT22;3349;49.830;8.748;2022-08-27T10:07:47;26.30;1.00
6627;DHT22;3349;49.830;8.748;2022-08-27T10:10:20;26.20;1.00
6627;DHT22;3349;49.830;8.748;2022-08-27T10:12:54;26.90;1.00
6627;DHT22;3349;49.830;8.748;2022-08-27T10:15:23;27.10;1.00
6627;DHT22;3349;49.830;8.748;2022-08-27T10:18:03;26.90;1.00
6627;DHT22;3349;49.830;8.748;2022-08-27T10:20:40;26.80;1.00
6627;DHT22;3349;49.830;8.748;2022-08-27T10:23:19;27.00;1.00
6627;DHT22;3349;49.830;8.748;2022-08-27T10:25:54;27.00;1.00
6627;DHT22;3349;49.830;8.748;2022-08-27T10:28:34;26.70;1.00
6627;DHT22;3349;49.830;8.748;2022-08-27T10:31:16;26.70;1.00
6627;DHT22;3349;49.830;8.748;2022-08-27T10:33:59;26.80;1.00
6627;DHT22;3349;49.830;8.748;2022-08-27T10:36:36;27.40;1.00
6627;DHT22;3349;49.830;8.748;2022-08-27T10:39:08;28.00;1.00
6627;DHT22;3349;49.830;8.748;2022-08-27T10:41:43;28.10;1.00
6627;DHT22;3349;49.830;8.748;2022-08-27T10:44:37;28.40;1.00
6627;DHT22;3349;49.830;8.748;2022-08-27T10:47:14;28.30;1.00
6627;DHT22;3349;49.830;8.748;2022-08-27T10:49:51;27.70;1.00
6627;DHT22;3349;49.830;8.748;2022-08-27T10:52:25;27.20;1.00
6627;DHT22;3349;49.830;8.748;2022-08-27T10:54:59;27.40;1.00
6627;DHT22;3349;49.830;8.748;2022-08-27T10:57:36;27.10;1.00
6627;DHT22;3349;49.830;8.748;2022-08-27T11:00:08;27.20;1.00
6627;DHT22;3349;49.830;8.748;2022-08-27T11:02:41;27.50;1.00
6627;DHT22;3349;49.830;8.748;2022-08-27T11:05:15;27.90;1.00
6627;DHT22;3349;49.830;8.748;2022-08-27T11:07:45;27.70;1.00
6627;DHT22;3349;49.830;8.748;2022-08-27T11:10:18;27.20;1.00
6627;DHT22;3349;49.830;8.748;2022-08-27T11:12:52;27.20;1.00
6627;DHT22;3349;49.830;8.748;2022-08-27T11:15:23;26.80;1.00
6627;DHT22;3349;49.830;8.748;2022-08-27T11:17:56;26.70;1.00
6627;DHT22;3349;49.830;8.748;2022-08-27T11:20:28;26.50;1.00
6627;DHT22;3349;49.830;8.748;2022-08-27T11:23:00;26.60;1.00
6627;DHT22;3349;49.830;8.748;2022-08-27T11:25:46;27.00;1.00
6627;DHT22;3349;49.830;8.748;2022-08-27T11:28:18;26.90;1.00
6627;DHT22;3349;49.830;8.748;2022-08-27T11:30:54;26.90;1.00
6627;DHT22;3349;49.830;8.748;2022-08-27T11:33:27;26.90;1.00
6627;DHT22;3349;49.830;8.748;2022-08-27T11:36:28;26.90;1.00
6627;DHT22;3349;49.830;8.748;2022-08-27T11:39:01;26.70;1.00
6627;DHT22;3349;49.830;8.748;2022-08-27T11:41:46;26.60;1.00
6627;DHT22;3349;49.830;8.748;2022-08-27T11:44:20;26.30;1.00
6627;DHT22;3349;49.830;8.748;2022-08-27T11:46:50;26.00;1.00
6627;DHT22;3349;49.830;8.748;2022-08-27T11:49:25;25.80;1.00
6627;DHT22;3349;49.830;8.748;2022-08-27T11:51:59;25.80;1.00
6627;DHT22;3349;49.830;8.748;2022-08-27T11:54:29;25.80;1.00
6627;DHT22;3349;49.830;8.748;2022-08-27T11:56:57;25.80;1.00
6627;DHT22;3349;49.830;8.748;2022-08-27T11:59:29;25.90;1.00
6627;DHT22;3349;49.830;8.748;2022-08-27T12:02:09;26.00;1.00
6627;DHT22;3349;49.830;8.748;2022-08-27T12:04:37;26.20;1.00
6627;DHT22;3349;49.830;8.748;2022-08-27T12:07:23;26.10;1.00
6627;DHT22;3349;49.830;8.748;2022-08-27T12:12:53;26.60;1.00
6627;DHT22;3349;49.830;8.748;2022-08-27T12:15:27;26.40;1.00
6627;DHT22;3349;49.830;8.748;2022-08-27T12:18:01;26.50;1.00
6627;DHT22;3349;49.830;8.748;2022-08-27T12:20:41;26.30;1.00
6627;DHT22;3349;49.830;8.748;2022-08-27T12:23:17;26.20;1.00
6627;DHT22;3349;49.830;8.748;2022-08-27T12:26:17;26.20;1.00
6627;DHT22;3349;49.830;8.748;2022-08-27T12:28:46;26.20;1.00
6627;DHT22;3349;49.830;8.748;2022-08-27T12:31:17;26.30;1.00
6627;DHT22;3349;49.830;8.748;2022-08-27T12:33:47;26.40;1.00
6627;DHT22;3349;49.830;8.748;2022-08-27T12:36:18;26.40;1.00
6627;DHT22;3349;49.830;8.748;2022-08-27T12:38:49;26.50;1.00
6627;DHT22;3349;49.830;8.748;2022-08-27T12:41:26;26.40;1.00
6627;DHT22;3349;49.830;8.748;2022-08-27T12:44:04;26.40;1.00
6627;DHT22;3349;49.830;8.748;2022-08-27T12:46:31;26.30;1.00
6627;DHT22;3349;49.830;8.748;2022-08-27T12:49:00;26.10;1.00
6627;DHT22;3349;49.830;8.748;2022-08-27T12:51:30;26.40;1.00
6627;DHT22;3349;49.830;8.748;2022-08-27T12:54:04;26.70;1.00
6627;DHT22;3349;49.830;8.748;2022-08-27T12:56:47;26.90;1.00
6627;DHT22;3349;49.830;8.748;2022-08-27T12:59:34;27.10;1.00
6627;DHT22;3349;49.830;8.748;2022-08-27T13:02:12;27.20;1.00
6627;DHT22;3349;49.830;8.748;2022-08-27T13:04:44;27.20;1.00
6627;DHT22;3349;49.830;8.748;2022-08-27T13:07:12;27.00;1.00
6627;DHT22;3349;49.830;8.748;2022-08-27T13:09:40;27.20;1.00
6627;DHT22;3349;49.830;8.748;2022-08-27T13:12:14;27.20;1.00
6627;DHT22;3349;49.830;8.748;2022-08-27T13:14:42;27.20;1.00
6627;DHT22;3349;49.830;8.748;2022-08-27T13:17:10;27.40;1.00
6627;DHT22;3349;49.830;8.748;2022-08-27T13:19:45;27.20;1.00
6627;DHT22;3349;49.830;8.748;2022-08-27T13:22:20;27.20;1.00
6627;DHT22;3349;49.830;8.748;2022-08-27T13:24:51;27.00;1.00
6627;DHT22;3349;49.830;8.748;2022-08-27T13:27:23;27.30;1.00
6627;DHT22;3349;49.830;8.748;2022-08-27T13:29:50;27.30;1.00
6627;DHT22;3349;49.830;8.748;2022-08-27T13:32:17;27.00;1.00
6627;DHT22;3349;49.830;8.748;2022-08-27T13:34:44;27.00;1.00
6627;DHT22;3349;49.830;8.748;2022-08-27T13:37:22;26.80;1.00
6627;DHT22;3349;49.830;8.748;2022-08-27T13:39:53;26.50;1.00
6627;DHT22;3349;49.830;8.748;2022-08-27T13:42:21;26.50;1.00
6627;DHT22;3349;49.830;8.748;2022-08-27T13:44:49;26.20;1.00
6627;DHT22;3349;49.830;8.748;2022-08-27T13:47:20;26.20;1.00
6627;DHT22;3349;49.830;8.748;2022-08-27T13:49:48;26.30;1.00
6627;DHT22;3349;49.830;8.748;2022-08-27T13:52:22;26.40;1.00
6627;DHT22;3349;49.830;8.748;2022-08-27T13:54:57;26.50;1.00
6627;DHT22;3349;49.830;8.748;2022-08-27T13:57:25;26.50;1.00
6627;DHT22;3349;49.830;8.748;2022-08-27T13:59:54;26.50;1.00
6627;DHT22;3349;49.830;8.748;2022-08-27T14:02:25;26.50;1.00
6627;DHT22;3349;49.830;8.748;2022-08-27T14:05:06;26.30;1.00
6627;DHT22;3349;49.830;8.748;2022-08-27T14:07:36;26.10;1.00
6627;DHT22;3349;49.830;8.748;2022-08-27T14:10:07;26.20;1.00
6627;DHT22;3349;49.830;8.748;2022-08-27T14:12:36;26.30;1.00
6627;DHT22;3349;49.830;8.748;2022-08-27T14:15:17;26.00;1.00
6627;DHT22;3349;49.830;8.748;2022-08-27T14:17:46;26.10;1.00
6627;DHT22;3349;49.830;8.748;2022-08-27T14:20:15;26.00;1.00
6627;DHT22;3349;49.830;8.748;2022-08-27T14:22:42;26.10;1.00
6627;DHT22;3349;49.830;8.748;2022-08-27T14:25:11;26.00;1.00
6627;DHT22;3349;49.830;8.748;2022-08-27T14:27:39;26.10;1.00
6627;DHT22;3349;49.830;8.748;2022-08-27T14:30:07;26.20;1.00
6627;DHT22;3349;49.830;8.748;2022-08-27T14:32:34;26.40;1.00
6627;DHT22;3349;49.830;8.748;2022-08-27T14:35:03;26.50;1.00
6627;DHT22;3349;49.830;8.748;2022-08-27T14:37:29;26.50;1.00
6627;DHT22;3349;49.830;8.748;2022-08-27T14:39:56;26.60;1.00
6627;DHT22;3349;49.830;8.748;2022-08-27T14:42:24;26.60;1.00
6627;DHT22;3349;49.830;8.748;2022-08-27T14:44:51;26.80;1.00
6627;DHT22;3349;49.830;8.748;2022-08-27T14:47:18;26.80;1.00
6627;DHT22;3349;49.830;8.748;2022-08-27T14:49:45;26.60;1.00
6627;DHT22;3349;49.830;8.748;2022-08-27T14:52:13;26.40;1.00
6627;DHT22;3349;49.830;8.748;2022-08-27T14:54:41;26.30;1.00
6627;DHT22;3349;49.830;8.748;2022-08-27T14:57:08;26.40;1.00
6627;DHT22;3349;49.830;8.748;2022-08-27T14:59:37;26.40;1.00
6627;DHT22;3349;49.830;8.748;2022-08-27T15:02:06;26.30;1.00
6627;DHT22;3349;49.830;8.748;2022-08-27T15:04:34;26.20;1.00
6627;DHT22;3349;49.830;8.748;2022-08-27T15:07:01;25.90;1.00
6627;DHT22;3349;49.830;8.748;2022-08-27T15:09:27;26.10;1.00
6627;DHT22;3349;49.830;8.748;2022-08-27T15:11:55;26.10;1.00
6627;DHT22;3349;49.830;8.748;2022-08-27T15:14:25;26.20;1.00
6627;DHT22;3349;49.830;8.748;2022-08-27T15:16:54;26.30;1.00
6627;DHT22;3349;49.830;8.748;2022-08-27T15:19:22;26.40;1.00
6627;DHT22;3349;49.830;8.748;2022-08-27T15:21:50;26.50;1.00
6627;DHT22;3349;49.830;8.748;2022-08-27T15:24:20;26.50;1.00
6627;DHT22;3349;49.830;8.748;2022-08-27T15:26:49;26.60;1.00
6627;DHT22;3349;49.830;8.748;2022-08-27T15:29:17;26.80;1.00
6627;DHT22;3349;49.830;8.748;2022-08-27T15:31:44;27.30;1.00
6627;DHT22;3349;49.830;8.748;2022-08-27T15:34:13;27.60;1.00
6627;DHT22;3349;49.830;8.748;2022-08-27T15:36:40;27.60;1.00
6627;DHT22;3349;49.830;8.748;2022-08-27T15:39:07;27.40;1.00
6627;DHT22;3349;49.830;8.748;2022-08-27T15:41:35;27.50;1.00
6627;DHT22;3349;49.830;8.748;2022-08-27T15:44:03;26.90;1.00
6627;DHT22;3349;49.830;8.748;2022-08-27T15:46:30;26.60;1.00
6627;DHT22;3349;49.830;8.748;2022-08-27T15:48:57;26.30;1.00
6627;DHT22;3349;49.830;8.748;2022-08-27T15:51:28;26.20;1.00
6627;DHT22;3349;49.830;8.748;2022-08-27T15:53:56;26.30;1.00
6627;DHT22;3349;49.830;8.748;2022-08-27T15:56:22;26.40;1.00
6627;DHT22;3349;49.830;8.748;2022-08-27T15:58:49;26.60;1.00
6627;DHT22;3349;49.830;8.748;2022-08-27T16:01:21;26.70;1.00
6627;DHT22;3349;49.830;8.748;2022-08-27T16:03:48;26.70;1.00
6627;DHT22;3349;49.830;8.748;2022-08-27T16:06:15;27.10;1.00
6627;DHT22;3349;49.830;8.748;2022-08-27T16:08:44;27.40;1.00
6627;DHT22;3349;49.830;8.748;2022-08-27T16:11:11;27.40;1.00
6627;DHT22;3349;49.830;8.748;2022-08-27T16:13:38;27.50;1.00
6627;DHT22;3349;49.830;8.748;2022-08-27T16:16:06;27.50;1.00
6627;DHT22;3349;49.830;8.748;2022-08-27T16:18:33;27.60;1.00
6627;DHT22;3349;49.830;8.748;2022-08-27T16:21:02;28.10;1.00
6627;DHT22;3349;49.830;8.748;2022-08-27T16:23:30;28.20;1.00
6627;DHT22;3349;49.830;8.748;2022-08-27T16:25:58;27.60;1.00
6627;DHT22;3349;49.830;8.748;2022-08-27T16:28:25;27.40;1.00
6627;DHT22;3349;49.830;8.748;2022-08-27T16:30:53;27.20;1.00
6627;DHT22;3349;49.830;8.748;2022-08-27T16:33:21;26.70;1.00
6627;DHT22;3349;49.830;8.748;2022-08-27T16:35:48;26.30;1.00